Estación Meteorológica Peña el Pijo (Robertgarden) [ 03/06/21 15:15:09 CET ]

Fecha Hora Presion(HPa) Temp (°C) Humedad % Rocio (°C) Viento ( m/s) Direccion Lluvia 1Hora(mm) Lluvia 24H(mm) LLuvia Total(mm)
2021-Feb-26 01:09:25 1016.700 6.9 82 3.9 - N     89.61
2021-Feb-26 02:10:02 1016.200 6.8 81 3.8 - N     89.61
2021-Feb-26 03:10:31 1016.000 6.5 82 3.6 - N     89.61
2021-Feb-26 04:10:18 1015.700 6.0 82 3.1 - N     89.61
2021-Feb-26 05:14:41 1015.400 5.3 86 3.1 - N     89.61
2021-Feb-26 06:09:37 1015.500 4.1 90 2.6 - N     89.61
2021-Feb-26 07:09:21 1015.600 4.5 90 3.0 - N     89.61
2021-Feb-26 08:09:36 1015.800 4.6 87 2.6 - N     89.61
2021-Feb-26 09:09:26 1016.400 5.9 86 3.7 - N     89.61
2021-Feb-26 10:09:44 1016.400 7.6 81 4.6 - N     89.61
2021-Feb-26 11:09:23 1016.500 10.8 69 5.4 - N     89.61
2021-Feb-26 12:09:44 1016.300 12.7 63 5.8 - N     89.61
2021-Feb-26 13:09:58 1015.700 14.1 58 6.0 - N     89.61
2021-Feb-26 14:09:18 1015.100 13.6 59 5.7 - N     89.61
2021-Feb-26 15:09:20 1014.400 13.9 60 6.3 - N     89.61
2021-Feb-26 16:09:32 1014.400 14.2 61 6.8 - N     89.61
2021-Feb-26 17:09:46 1014.400 12.3 65 5.9 - N     89.61
2021-Feb-26 18:09:23 1014.500 10.8 69 5.4 - N     89.61
2021-Feb-26 19:09:15 1014.800 8.8 75 4.6 - N     89.61
2021-Feb-26 20:10:09 1015.200 7.0 79 3.6 - N     89.61
2021-Feb-26 21:09:24 1014.900 5.6 83 2.9 - N     89.61
2021-Feb-26 22:09:17 1015.200 4.3 85 2.0 - N     89.61
2021-Feb-26 23:09:47 1015.500 2.9 86 0.8 - N     89.61

Temperatura Máxima:14°    Temperatura Mínima:
Presión Máxima:1016.700 Hpa    Presión Mínima:1014.400 Hpa


Volver